sensor_id;sensor_type;location;lat;lon;timestamp;pressure;altitude;pressure_sealevel;temperature;humidity
28701;BME280;15877;52.344;16.790;2024-03-22T00:01:30;100987.41;;;12.30;92.29
28701;BME280;15877;52.344;16.790;2024-03-22T00:04:01;100986.35;;;12.32;92.25
28701;BME280;15877;52.344;16.790;2024-03-22T00:06:32;100989.40;;;12.38;91.48
28701;BME280;15877;52.344;16.790;2024-03-22T00:09:03;100989.16;;;12.26;91.85
28701;BME280;15877;52.344;16.790;2024-03-22T00:11:35;100985.02;;;12.24;91.56
28701;BME280;15877;52.344;16.790;2024-03-22T00:14:06;100990.25;;;12.22;91.82
28701;BME280;15877;52.344;16.790;2024-03-22T00:16:37;100985.59;;;12.10;92.05
28701;BME280;15877;52.344;16.790;2024-03-22T00:19:09;100982.36;;;12.15;91.87
28701;BME280;15877;52.344;16.790;2024-03-22T00:21:40;100982.31;;;12.06;91.85
28701;BME280;15877;52.344;16.790;2024-03-22T00:24:11;100972.39;;;11.98;92.48
28701;BME280;15877;52.344;16.790;2024-03-22T00:26:42;100968.10;;;11.95;92.19
28701;BME280;15877;52.344;16.790;2024-03-22T00:29:18;100965.16;;;11.99;91.07
28701;BME280;15877;52.344;16.790;2024-03-22T00:31:49;100963.61;;;11.97;90.71
28701;BME280;15877;52.344;16.790;2024-03-22T00:34:20;100962.20;;;11.91;91.07
28701;BME280;15877;52.344;16.790;2024-03-22T00:36:51;100955.71;;;11.93;91.03
28701;BME280;15877;52.344;16.790;2024-03-22T00:39:23;100953.10;;;11.90;90.75
28701;BME280;15877;52.344;16.790;2024-03-22T00:41:54;100951.77;;;11.85;90.79
28701;BME280;15877;52.344;16.790;2024-03-22T00:44:25;100948.87;;;11.83;90.82
28701;BME280;15877;52.344;16.790;2024-03-22T00:46:56;100948.63;;;11.80;91.05
28701;BME280;15877;52.344;16.790;2024-03-22T00:49:27;100949.30;;;11.85;90.62
28701;BME280;15877;52.344;16.790;2024-03-22T00:51:58;100949.89;;;11.92;90.08
28701;BME280;15877;52.344;16.790;2024-03-22T00:54:29;100947.95;;;11.85;89.82
28701;BME280;15877;52.344;16.790;2024-03-22T00:57:01;100952.20;;;11.86;89.65
28701;BME280;15877;52.344;16.790;2024-03-22T00:59:32;100954.90;;;11.92;88.97
28701;BME280;15877;52.344;16.790;2024-03-22T01:02:04;100954.98;;;11.83;89.42
28701;BME280;15877;52.344;16.790;2024-03-22T01:04:35;100951.56;;;11.86;89.39
28701;BME280;15877;52.344;16.790;2024-03-22T01:07:06;100951.67;;;11.90;89.20
28701;BME280;15877;52.344;16.790;2024-03-22T01:09:37;100951.61;;;11.84;89.47
28701;BME280;15877;52.344;16.790;2024-03-22T01:12:08;100947.38;;;11.93;88.98
28701;BME280;15877;52.344;16.790;2024-03-22T01:14:40;100949.04;;;11.93;89.02
28701;BME280;15877;52.344;16.790;2024-03-22T01:17:11;100950.11;;;11.95;89.11
28701;BME280;15877;52.344;16.790;2024-03-22T01:19:42;100948.23;;;11.99;88.65
28701;BME280;15877;52.344;16.790;2024-03-22T01:22:13;100944.51;;;12.00;88.54
28701;BME280;15877;52.344;16.790;2024-03-22T01:24:44;100949.45;;;12.03;88.24
28701;BME280;15877;52.344;16.790;2024-03-22T01:27:16;100953.14;;;11.98;88.49
28701;BME280;15877;52.344;16.790;2024-03-22T01:29:48;100959.49;;;11.95;88.65
28701;BME280;15877;52.344;16.790;2024-03-22T01:32:19;100955.94;;;11.83;89.09
28701;BME280;15877;52.344;16.790;2024-03-22T01:34:50;100958.89;;;11.80;89.36
28701;BME280;15877;52.344;16.790;2024-03-22T01:37:21;100961.38;;;11.71;89.80
28701;BME280;15877;52.344;16.790;2024-03-22T01:39:52;100960.98;;;11.72;89.83
28701;BME280;15877;52.344;16.790;2024-03-22T01:42:24;100956.88;;;11.73;89.74
28701;BME280;15877;52.344;16.790;2024-03-22T01:44:55;100955.98;;;11.72;89.65
28701;BME280;15877;52.344;16.790;2024-03-22T01:47:27;100945.25;;;11.63;89.59
28701;BME280;15877;52.344;16.790;2024-03-22T01:49:58;100960.41;;;11.68;89.26
28701;BME280;15877;52.344;16.790;2024-03-22T01:52:30;100959.33;;;11.70;89.07
28701;BME280;15877;52.344;16.790;2024-03-22T01:55:02;100957.33;;;11.69;88.95
28701;BME280;15877;52.344;16.790;2024-03-22T01:57:35;100956.96;;;11.67;89.08
28701;BME280;15877;52.344;16.790;2024-03-22T02:00:08;100957.48;;;11.72;88.62
28701;BME280;15877;52.344;16.790;2024-03-22T02:02:46;100951.23;;;11.67;88.68
28701;BME280;15877;52.344;16.790;2024-03-22T02:05:18;100948.34;;;11.66;89.05
28701;BME280;15877;52.344;16.790;2024-03-22T02:07:50;100946.80;;;11.60;89.23
28701;BME280;15877;52.344;16.790;2024-03-22T02:10:22;100942.77;;;11.60;89.26
28701;BME280;15877;52.344;16.790;2024-03-22T02:12:53;100931.98;;;11.61;88.70
28701;BME280;15877;52.344;16.790;2024-03-22T02:15:25;100942.48;;;11.58;89.20
28701;BME280;15877;52.344;16.790;2024-03-22T02:17:56;100932.63;;;11.59;89.23
28701;BME280;15877;52.344;16.790;2024-03-22T02:20:27;100931.58;;;11.66;88.46
28701;BME280;15877;52.344;16.790;2024-03-22T02:22:58;100927.18;;;11.69;88.10
28701;BME280;15877;52.344;16.790;2024-03-22T02:25:29;100929.08;;;11.68;87.89
28701;BME280;15877;52.344;16.790;2024-03-22T02:28:00;100931.77;;;11.68;87.64
28701;BME280;15877;52.344;16.790;2024-03-22T02:30:31;100928.39;;;11.69;87.48
28701;BME280;15877;52.344;16.790;2024-03-22T02:33:03;100924.37;;;11.65;87.37
28701;BME280;15877;52.344;16.790;2024-03-22T02:35:34;100919.36;;;11.59;87.54
28701;BME280;15877;52.344;16.790;2024-03-22T02:38:05;100920.48;;;11.59;87.17
28701;BME280;15877;52.344;16.790;2024-03-22T02:40:36;100917.57;;;11.63;87.00
28701;BME280;15877;52.344;16.790;2024-03-22T02:43:08;100921.45;;;11.63;86.49
28701;BME280;15877;52.344;16.790;2024-03-22T02:45:39;100922.11;;;11.52;86.93
28701;BME280;15877;52.344;16.790;2024-03-22T02:48:10;100924.21;;;11.50;86.83
28701;BME280;15877;52.344;16.790;2024-03-22T02:50:41;100919.31;;;11.48;87.17
28701;BME280;15877;52.344;16.790;2024-03-22T02:53:13;100918.05;;;11.52;86.35
28701;BME280;15877;52.344;16.790;2024-03-22T02:55:44;100916.31;;;11.55;86.11
28701;BME280;15877;52.344;16.790;2024-03-22T02:58:16;100915.52;;;11.49;86.32
28701;BME280;15877;52.344;16.790;2024-03-22T03:00:48;100918.93;;;11.49;86.13
28701;BME280;15877;52.344;16.790;2024-03-22T03:03:19;100917.23;;;11.50;86.16
28701;BME280;15877;52.344;16.790;2024-03-22T03:05:50;100922.44;;;11.46;85.77
28701;BME280;15877;52.344;16.790;2024-03-22T03:08:22;100924.20;;;11.43;85.82
28701;BME280;15877;52.344;16.790;2024-03-22T03:10:54;100921.27;;;11.44;85.18
28701;BME280;15877;52.344;16.790;2024-03-22T03:13:25;100919.20;;;11.38;85.44
28701;BME280;15877;52.344;16.790;2024-03-22T03:15:56;100922.06;;;11.38;84.73
28701;BME280;15877;52.344;16.790;2024-03-22T03:18:27;100926.84;;;11.35;84.33
28701;BME280;15877;52.344;16.790;2024-03-22T03:20:59;100920.97;;;11.33;84.34
28701;BME280;15877;52.344;16.790;2024-03-22T03:23:30;100921.99;;;11.27;84.66
28701;BME280;15877;52.344;16.790;2024-03-22T03:26:01;100922.30;;;11.27;84.46
28701;BME280;15877;52.344;16.790;2024-03-22T03:28:32;100920.31;;;11.29;84.26
28701;BME280;15877;52.344;16.790;2024-03-22T03:31:04;100914.32;;;11.25;84.02
28701;BME280;15877;52.344;16.790;2024-03-22T03:33:35;100916.26;;;11.26;84.17
28701;BME280;15877;52.344;16.790;2024-03-22T03:36:07;100920.84;;;11.28;83.71
28701;BME280;15877;52.344;16.790;2024-03-22T03:38:38;100921.52;;;11.21;83.72
28701;BME280;15877;52.344;16.790;2024-03-22T03:41:10;100921.23;;;11.28;83.49
28701;BME280;15877;52.344;16.790;2024-03-22T03:43:41;100911.14;;;11.30;82.64
28701;BME280;15877;52.344;16.790;2024-03-22T03:46:13;100923.39;;;11.32;82.58
28701;BME280;15877;52.344;16.790;2024-03-22T03:48:44;100923.08;;;11.28;82.71
28701;BME280;15877;52.344;16.790;2024-03-22T03:51:15;100919.52;;;11.26;82.37
28701;BME280;15877;52.344;16.790;2024-03-22T03:53:46;100919.20;;;11.23;82.16
28701;BME280;15877;52.344;16.790;2024-03-22T03:56:17;100923.55;;;11.20;82.14
28701;BME280;15877;52.344;16.790;2024-03-22T03:58:48;100925.52;;;11.14;81.98
28701;BME280;15877;52.344;16.790;2024-03-22T04:01:20;100924.85;;;11.01;82.46
28701;BME280;15877;52.344;16.790;2024-03-22T04:03:52;100929.53;;;11.06;82.50
28701;BME280;15877;52.344;16.790;2024-03-22T04:06:24;100926.50;;;11.05;82.00
28701;BME280;15877;52.344;16.790;2024-03-22T04:08:55;100926.06;;;10.99;82.18
28701;BME280;15877;52.344;16.790;2024-03-22T04:11:27;100928.67;;;10.98;82.24
28701;BME280;15877;52.344;16.790;2024-03-22T04:13:58;100931.70;;;11.01;82.13
28701;BME280;15877;52.344;16.790;2024-03-22T04:16:29;100930.95;;;11.00;81.81
28701;BME280;15877;52.344;16.790;2024-03-22T04:19:01;100928.20;;;10.98;81.79
28701;BME280;15877;52.344;16.790;2024-03-22T04:21:32;100920.86;;;11.02;81.57
28701;BME280;15877;52.344;16.790;2024-03-22T04:24:04;100924.02;;;11.05;81.51
28701;BME280;15877;52.344;16.790;2024-03-22T04:26:35;100922.57;;;11.10;80.94
28701;BME280;15877;52.344;16.790;2024-03-22T04:29:06;100924.64;;;11.07;81.01
28701;BME280;15877;52.344;16.790;2024-03-22T04:31:37;100923.86;;;11.07;81.08
28701;BME280;15877;52.344;16.790;2024-03-22T04:34:09;100921.16;;;11.08;81.11
28701;BME280;15877;52.344;16.790;2024-03-22T04:36:41;100922.33;;;10.96;81.37
28701;BME280;15877;52.344;16.790;2024-03-22T04:39:12;100910.50;;;10.84;81.97
28701;BME280;15877;52.344;16.790;2024-03-22T04:41:43;100904.74;;;10.86;82.26
28701;BME280;15877;52.344;16.790;2024-03-22T04:44:15;100898.34;;;10.98;81.58
28701;BME280;15877;52.344;16.790;2024-03-22T04:46:46;100903.83;;;11.02;81.40
28701;BME280;15877;52.344;16.790;2024-03-22T04:49:17;100901.91;;;10.96;81.63
28701;BME280;15877;52.344;16.790;2024-03-22T04:51:48;100905.02;;;10.90;82.03
28701;BME280;15877;52.344;16.790;2024-03-22T04:54:19;100904.14;;;10.87;82.17
28701;BME280;15877;52.344;16.790;2024-03-22T04:56:51;100901.58;;;10.95;82.07
28701;BME280;15877;52.344;16.790;2024-03-22T04:59:22;100903.14;;;10.91;82.31
28701;BME280;15877;52.344;16.790;2024-03-22T05:01:53;100898.67;;;10.91;82.44
28701;BME280;15877;52.344;16.790;2024-03-22T05:04:24;100896.69;;;11.02;81.96
28701;BME280;15877;52.344;16.790;2024-03-22T05:06:55;100888.48;;;11.01;81.94
28701;BME280;15877;52.344;16.790;2024-03-22T05:09:27;100881.65;;;10.87;82.80
28701;BME280;15877;52.344;16.790;2024-03-22T05:11:58;100883.98;;;10.96;82.59
28701;BME280;15877;52.344;16.790;2024-03-22T05:14:29;100889.48;;;10.94;82.83
28701;BME280;15877;52.344;16.790;2024-03-22T05:17:00;100886.17;;;10.92;83.37
28701;BME280;15877;52.344;16.790;2024-03-22T05:19:32;100885.98;;;11.02;82.56
28701;BME280;15877;52.344;16.790;2024-03-22T05:22:03;100888.86;;;10.97;82.89
28701;BME280;15877;52.344;16.790;2024-03-22T05:24:35;100890.27;;;11.03;82.66
28701;BME280;15877;52.344;16.790;2024-03-22T05:27:08;100890.52;;;10.95;83.00
28701;BME280;15877;52.344;16.790;2024-03-22T05:29:39;100885.13;;;10.97;83.29
28701;BME280;15877;52.344;16.790;2024-03-22T05:32:11;100890.02;;;11.11;82.45
28701;BME280;15877;52.344;16.790;2024-03-22T05:34:42;100890.41;;;11.07;82.68
28701;BME280;15877;52.344;16.790;2024-03-22T05:37:13;100885.46;;;11.10;82.66
28701;BME280;15877;52.344;16.790;2024-03-22T05:39:45;100889.41;;;11.11;82.84
28701;BME280;15877;52.344;16.790;2024-03-22T05:42:16;100888.02;;;11.14;82.87
28701;BME280;15877;52.344;16.790;2024-03-22T05:44:48;100882.84;;;11.19;82.25
28701;BME280;15877;52.344;16.790;2024-03-22T05:47:20;100887.39;;;11.05;83.11
28701;BME280;15877;52.344;16.790;2024-03-22T05:50:08;100885.43;;;11.15;82.81
28701;BME280;15877;52.344;16.790;2024-03-22T05:52:40;100885.54;;;11.16;82.67
28701;BME280;15877;52.344;16.790;2024-03-22T05:55:11;100882.66;;;11.12;82.56
28701;BME280;15877;52.344;16.790;2024-03-22T05:57:42;100881.84;;;11.16;82.59
28701;BME280;15877;52.344;16.790;2024-03-22T06:00:14;100883.09;;;11.07;83.44
28701;BME280;15877;52.344;16.790;2024-03-22T06:02:45;100882.66;;;11.12;83.21
28701;BME280;15877;52.344;16.790;2024-03-22T06:05:17;100880.80;;;11.26;82.26
28701;BME280;15877;52.344;16.790;2024-03-22T06:07:48;100878.20;;;11.11;83.16
28701;BME280;15877;52.344;16.790;2024-03-22T06:10:19;100877.38;;;11.13;83.49
28701;BME280;15877;52.344;16.790;2024-03-22T06:12:51;100874.24;;;11.24;82.48
28701;BME280;15877;52.344;16.790;2024-03-22T06:15:22;100875.80;;;11.26;82.57
28701;BME280;15877;52.344;16.790;2024-03-22T06:17:53;100880.98;;;10.97;84.14
28701;BME280;15877;52.344;16.790;2024-03-22T06:20:24;100878.13;;;10.86;84.94
28701;BME280;15877;52.344;16.790;2024-03-22T06:22:56;100879.20;;;10.87;85.04
28701;BME280;15877;52.344;16.790;2024-03-22T06:25:27;100873.83;;;10.77;86.08
28701;BME280;15877;52.344;16.790;2024-03-22T06:27:59;100870.23;;;10.71;86.78
28701;BME280;15877;52.344;16.790;2024-03-22T06:30:30;100865.57;;;10.68;86.89
28701;BME280;15877;52.344;16.790;2024-03-22T06:33:01;100866.23;;;10.72;86.93
28701;BME280;15877;52.344;16.790;2024-03-22T06:35:34;100858.52;;;10.69;86.73
28701;BME280;15877;52.344;16.790;2024-03-22T06:38:05;100854.59;;;10.87;86.06
28701;BME280;15877;52.344;16.790;2024-03-22T06:40:37;100855.23;;;10.68;86.19
28701;BME280;15877;52.344;16.790;2024-03-22T06:43:08;100858.27;;;10.63;85.79
28701;BME280;15877;52.344;16.790;2024-03-22T06:45:39;100862.52;;;10.95;83.86
28701;BME280;15877;52.344;16.790;2024-03-22T06:48:11;100860.33;;;10.80;84.09
28701;BME280;15877;52.344;16.790;2024-03-22T06:50:42;100851.19;;;10.68;84.43
28701;BME280;15877;52.344;16.790;2024-03-22T06:53:13;100850.41;;;10.71;84.39
28701;BME280;15877;52.344;16.790;2024-03-22T06:55:45;100851.81;;;10.68;84.05
28701;BME280;15877;52.344;16.790;2024-03-22T06:58:16;100846.49;;;10.54;84.27
28701;BME280;15877;52.344;16.790;2024-03-22T07:00:47;100842.90;;;10.42;84.53
28701;BME280;15877;52.344;16.790;2024-03-22T07:03:18;100841.21;;;10.30;85.39
28701;BME280;15877;52.344;16.790;2024-03-22T07:05:49;100839.70;;;10.27;86.01
28701;BME280;15877;52.344;16.790;2024-03-22T07:08:21;100835.70;;;10.35;85.67
28701;BME280;15877;52.344;16.790;2024-03-22T07:10:53;100834.09;;;10.59;85.03
28701;BME280;15877;52.344;16.790;2024-03-22T07:13:24;100834.03;;;10.68;84.23
28701;BME280;15877;52.344;16.790;2024-03-22T07:15:55;100830.34;;;11.01;83.72
28701;BME280;15877;52.344;16.790;2024-03-22T07:18:26;100830.36;;;10.87;84.58
28701;BME280;15877;52.344;16.790;2024-03-22T07:20:58;100827.30;;;10.85;84.44
28701;BME280;15877;52.344;16.790;2024-03-22T07:23:31;100824.65;;;10.93;83.77
28701;BME280;15877;52.344;16.790;2024-03-22T07:26:02;100819.29;;;11.16;82.97
28701;BME280;15877;52.344;16.790;2024-03-22T07:28:38;100825.22;;;11.03;82.65
28701;BME280;15877;52.344;16.790;2024-03-22T07:31:09;100827.16;;;11.01;82.07
28701;BME280;15877;52.344;16.790;2024-03-22T07:33:40;100829.14;;;10.89;81.94
28701;BME280;15877;52.344;16.790;2024-03-22T07:36:12;100820.52;;;10.90;82.40
28701;BME280;15877;52.344;16.790;2024-03-22T07:38:43;100814.71;;;11.05;83.63
28701;BME280;15877;52.344;16.790;2024-03-22T07:41:14;100818.05;;;11.12;83.09
28701;BME280;15877;52.344;16.790;2024-03-22T07:43:45;100813.77;;;11.11;83.40
28701;BME280;15877;52.344;16.790;2024-03-22T07:46:17;100812.39;;;11.16;83.64
28701;BME280;15877;52.344;16.790;2024-03-22T07:48:48;100796.55;;;11.00;83.03
28701;BME280;15877;52.344;16.790;2024-03-22T07:51:19;100799.71;;;11.21;83.26
28701;BME280;15877;52.344;16.790;2024-03-22T07:53:51;100801.43;;;11.17;83.10
28701;BME280;15877;52.344;16.790;2024-03-22T07:56:22;100797.95;;;11.15;82.14
28701;BME280;15877;52.344;16.790;2024-03-22T07:58:53;100791.35;;;11.17;82.86
28701;BME280;15877;52.344;16.790;2024-03-22T08:01:25;100791.98;;;11.21;82.28
28701;BME280;15877;52.344;16.790;2024-03-22T08:03:57;100789.41;;;11.29;81.73
28701;BME280;15877;52.344;16.790;2024-03-22T08:06:28;100779.80;;;11.29;82.36
28701;BME280;15877;52.344;16.790;2024-03-22T08:08:59;100778.11;;;11.31;83.52
28701;BME280;15877;52.344;16.790;2024-03-22T08:11:33;100766.39;;;11.56;80.97
28701;BME280;15877;52.344;16.790;2024-03-22T08:14:04;100767.60;;;11.63;81.83
28701;BME280;15877;52.344;16.790;2024-03-22T08:16:35;100778.72;;;11.63;81.90
28701;BME280;15877;52.344;16.790;2024-03-22T08:19:07;100774.83;;;11.34;81.30
28701;BME280;15877;52.344;16.790;2024-03-22T08:21:38;100781.69;;;11.31;81.75
28701;BME280;15877;52.344;16.790;2024-03-22T08:24:10;100784.30;;;11.09;81.08
28701;BME280;15877;52.344;16.790;2024-03-22T08:26:41;100781.99;;;11.28;82.67
28701;BME280;15877;52.344;16.790;2024-03-22T08:29:15;100773.55;;;11.39;82.69
28701;BME280;15877;52.344;16.790;2024-03-22T08:31:46;100774.02;;;11.56;81.80
28701;BME280;15877;52.344;16.790;2024-03-22T08:34:18;100773.67;;;11.48;82.43
28701;BME280;15877;52.344;16.790;2024-03-22T08:36:50;100771.73;;;11.50;81.53
28701;BME280;15877;52.344;16.790;2024-03-22T08:39:21;100764.77;;;11.26;81.94
28701;BME280;15877;52.344;16.790;2024-03-22T08:41:54;100759.16;;;11.40;82.71
28701;BME280;15877;52.344;16.790;2024-03-22T08:44:26;100756.20;;;11.49;81.99
28701;BME280;15877;52.344;16.790;2024-03-22T08:46:57;100757.30;;;11.75;80.92
28701;BME280;15877;52.344;16.790;2024-03-22T08:49:28;100753.91;;;11.80;81.44
28701;BME280;15877;52.344;16.790;2024-03-22T08:52:00;100753.96;;;11.96;81.60
28701;BME280;15877;52.344;16.790;2024-03-22T08:54:32;100750.96;;;11.83;81.47
28701;BME280;15877;52.344;16.790;2024-03-22T08:57:05;100748.31;;;11.85;81.14
28701;BME280;15877;52.344;16.790;2024-03-22T08:59:36;100746.20;;;12.01;80.53
28701;BME280;15877;52.344;16.790;2024-03-22T09:02:08;100741.45;;;11.96;80.57
28701;BME280;15877;52.344;16.790;2024-03-22T09:04:39;100742.09;;;11.99;80.94
28701;BME280;15877;52.344;16.790;2024-03-22T09:07:10;100740.03;;;12.07;80.08
28701;BME280;15877;52.344;16.790;2024-03-22T09:09:42;100733.80;;;12.06;79.80
28701;BME280;15877;52.344;16.790;2024-03-22T09:12:13;100720.92;;;12.14;79.15
28701;BME280;15877;52.344;16.790;2024-03-22T09:14:45;100716.23;;;12.30;79.13
28701;BME280;15877;52.344;16.790;2024-03-22T09:17:16;100714.80;;;12.23;79.99
28701;BME280;15877;52.344;16.790;2024-03-22T09:19:48;100710.47;;;12.25;79.77
28701;BME280;15877;52.344;16.790;2024-03-22T09:22:19;100691.08;;;12.14;79.31
28701;BME280;15877;52.344;16.790;2024-03-22T09:24:50;100703.36;;;12.28;78.20
28701;BME280;15877;52.344;16.790;2024-03-22T09:27:21;100697.06;;;12.32;78.21
28701;BME280;15877;52.344;16.790;2024-03-22T09:29:53;100695.84;;;12.51;78.88
28701;BME280;15877;52.344;16.790;2024-03-22T09:32:24;100698.50;;;12.54;78.86
28701;BME280;15877;52.344;16.790;2024-03-22T09:34:56;100696.88;;;12.60;78.43
28701;BME280;15877;52.344;16.790;2024-03-22T09:37:28;100687.86;;;12.81;77.16
28701;BME280;15877;52.344;16.790;2024-03-22T09:39:59;100685.97;;;12.83;77.08
28701;BME280;15877;52.344;16.790;2024-03-22T09:42:33;100683.77;;;12.90;77.48
28701;BME280;15877;52.344;16.790;2024-03-22T09:45:10;100683.33;;;12.73;76.70
28701;BME280;15877;52.344;16.790;2024-03-22T09:47:42;100678.45;;;12.82;76.72
28701;BME280;15877;52.344;16.790;2024-03-22T09:50:13;100685.69;;;12.76;76.76
28701;BME280;15877;52.344;16.790;2024-03-22T09:52:46;100685.42;;;12.70;76.55
28701;BME280;15877;52.344;16.790;2024-03-22T09:55:19;100687.66;;;12.75;76.12
28701;BME280;15877;52.344;16.790;2024-03-22T09:57:53;100676.40;;;12.83;77.31
28701;BME280;15877;52.344;16.790;2024-03-22T10:00:25;100666.49;;;12.95;77.63
28701;BME280;15877;52.344;16.790;2024-03-22T10:02:56;100665.04;;;13.07;75.90
28701;BME280;15877;52.344;16.790;2024-03-22T10:05:28;100667.63;;;13.05;74.91
28701;BME280;15877;52.344;16.790;2024-03-22T10:07:59;100660.69;;;13.25;74.48
28701;BME280;15877;52.344;16.790;2024-03-22T10:10:31;100657.46;;;13.22;74.14
28701;BME280;15877;52.344;16.790;2024-03-22T10:13:04;100653.31;;;13.23;73.72
28701;BME280;15877;52.344;16.790;2024-03-22T10:15:36;100646.25;;;13.54;75.03
28701;BME280;15877;52.344;16.790;2024-03-22T10:18:07;100639.14;;;13.47;73.64
28701;BME280;15877;52.344;16.790;2024-03-22T10:20:40;100638.91;;;13.59;72.96
28701;BME280;15877;52.344;16.790;2024-03-22T10:23:11;100639.98;;;13.74;73.15
28701;BME280;15877;52.344;16.790;2024-03-22T10:25:42;100635.34;;;13.38;72.14
28701;BME280;15877;52.344;16.790;2024-03-22T10:28:14;100638.39;;;13.33;72.09
28701;BME280;15877;52.344;16.790;2024-03-22T10:30:45;100640.10;;;13.19;71.63
28701;BME280;15877;52.344;16.790;2024-03-22T10:33:19;100636.67;;;13.04;72.45
28701;BME280;15877;52.344;16.790;2024-03-22T10:35:54;100629.81;;;12.94;72.89
28701;BME280;15877;52.344;16.790;2024-03-22T10:38:27;100617.41;;;12.99;74.26
28701;BME280;15877;52.344;16.790;2024-03-22T10:40:58;100613.35;;;13.32;73.29
28701;BME280;15877;52.344;16.790;2024-03-22T10:43:30;100613.36;;;13.44;72.84
28701;BME280;15877;52.344;16.790;2024-03-22T10:46:04;100609.64;;;13.23;73.53
28701;BME280;15877;52.344;16.790;2024-03-22T10:48:37;100599.42;;;13.27;73.41
28701;BME280;15877;52.344;16.790;2024-03-22T10:51:09;100590.18;;;13.07;74.19
28701;BME280;15877;52.344;16.790;2024-03-22T10:53:41;100589.42;;;13.00;75.91
28701;BME280;15877;52.344;16.790;2024-03-22T10:56:13;100584.92;;;13.06;75.32
28701;BME280;15877;52.344;16.790;2024-03-22T10:58:48;100581.67;;;13.18;74.02
28701;BME280;15877;52.344;16.790;2024-03-22T11:01:25;100583.57;;;13.29;73.95
28701;BME280;15877;52.344;16.790;2024-03-22T11:04:07;100583.40;;;12.91;74.33
28701;BME280;15877;52.344;16.790;2024-03-22T11:06:41;100575.23;;;12.93;74.20
28701;BME280;15877;52.344;16.790;2024-03-22T11:09:22;100570.36;;;12.98;75.67
28701;BME280;15877;52.344;16.790;2024-03-22T11:11:54;100570.41;;;13.22;75.85
28701;BME280;15877;52.344;16.790;2024-03-22T11:14:29;100568.91;;;13.23;76.60
28701;BME280;15877;52.344;16.790;2024-03-22T11:17:00;100568.80;;;12.94;77.55
28701;BME280;15877;52.344;16.790;2024-03-22T11:19:31;100570.60;;;12.98;76.29
28701;BME280;15877;52.344;16.790;2024-03-22T11:22:06;100568.63;;;12.99;75.46
28701;BME280;15877;52.344;16.790;2024-03-22T11:24:39;100566.58;;;12.69;75.79
28701;BME280;15877;52.344;16.790;2024-03-22T11:27:11;100557.17;;;12.84;76.83
28701;BME280;15877;52.344;16.790;2024-03-22T11:29:42;100551.08;;;12.66;77.10
28701;BME280;15877;52.344;16.790;2024-03-22T11:32:14;100548.76;;;12.61;77.08
28701;BME280;15877;52.344;16.790;2024-03-22T11:34:45;100544.36;;;12.70;76.15
28701;BME280;15877;52.344;16.790;2024-03-22T11:37:17;100541.98;;;12.91;75.95
28701;BME280;15877;52.344;16.790;2024-03-22T11:39:49;100525.84;;;12.78;75.96
28701;BME280;15877;52.344;16.790;2024-03-22T11:42:20;100514.63;;;12.90;76.35
28701;BME280;15877;52.344;16.790;2024-03-22T11:44:52;100507.53;;;13.00;76.01
28701;BME280;15877;52.344;16.790;2024-03-22T11:47:24;100507.77;;;12.84;78.48
28701;BME280;15877;52.344;16.790;2024-03-22T11:49:56;100503.95;;;12.84;81.01
28701;BME280;15877;52.344;16.790;2024-03-22T11:52:27;100502.61;;;13.07;82.34
28701;BME280;15877;52.344;16.790;2024-03-22T11:54:59;100486.40;;;13.04;82.66
28701;BME280;15877;52.344;16.790;2024-03-22T11:57:31;100479.89;;;13.07;82.77
28701;BME280;15877;52.344;16.790;2024-03-22T12:00:03;100482.98;;;12.96;80.75
28701;BME280;15877;52.344;16.790;2024-03-22T12:02:59;100483.64;;;13.06;79.52
28701;BME280;15877;52.344;16.790;2024-03-22T12:05:31;100479.36;;;13.08;78.07
28701;BME280;15877;52.344;16.790;2024-03-22T12:08:02;100480.27;;;13.06;78.16
28701;BME280;15877;52.344;16.790;2024-03-22T12:10:33;100475.00;;;12.93;78.89
28701;BME280;15877;52.344;16.790;2024-03-22T12:13:04;100474.17;;;12.97;78.83
28701;BME280;15877;52.344;16.790;2024-03-22T12:15:36;100469.48;;;12.97;77.54
28701;BME280;15877;52.344;16.790;2024-03-22T12:18:07;100468.97;;;13.00;78.22
28701;BME280;15877;52.344;16.790;2024-03-22T12:20:38;100462.27;;;13.11;78.28
28701;BME280;15877;52.344;16.790;2024-03-22T12:23:11;100459.13;;;13.29;77.97
28701;BME280;15877;52.344;16.790;2024-03-22T12:25:42;100449.33;;;13.36;77.98
28701;BME280;15877;52.344;16.790;2024-03-22T12:28:13;100446.06;;;13.44;78.40
28701;BME280;15877;52.344;16.790;2024-03-22T12:30:44;100433.70;;;13.35;78.12
28701;BME280;15877;52.344;16.790;2024-03-22T12:33:16;100437.98;;;13.50;76.72
28701;BME280;15877;52.344;16.790;2024-03-22T12:35:47;100436.55;;;13.50;77.39
28701;BME280;15877;52.344;16.790;2024-03-22T12:38:18;100434.77;;;13.39;77.22
28701;BME280;15877;52.344;16.790;2024-03-22T12:40:50;100427.67;;;13.32;76.42
28701;BME280;15877;52.344;16.790;2024-03-22T12:43:21;100424.15;;;13.30;76.44
28701;BME280;15877;52.344;16.790;2024-03-22T12:45:52;100412.27;;;13.44;75.66
28701;BME280;15877;52.344;16.790;2024-03-22T12:48:23;100406.75;;;13.60;75.07
28701;BME280;15877;52.344;16.790;2024-03-22T12:50:55;100410.81;;;13.52;75.03
28701;BME280;15877;52.344;16.790;2024-03-22T12:53:26;100410.53;;;13.47;74.47
28701;BME280;15877;52.344;16.790;2024-03-22T12:55:57;100406.94;;;13.45;73.50
28701;BME280;15877;52.344;16.790;2024-03-22T12:58:29;100400.38;;;13.29;73.91
28701;BME280;15877;52.344;16.790;2024-03-22T13:01:00;100394.10;;;13.38;73.84
28701;BME280;15877;52.344;16.790;2024-03-22T13:03:33;100382.83;;;13.44;74.58